METAR Data
IDs: Format: Raw Decoded Include TAF

Data at: 2319 UTC 30 Jun 2022

METAR for:KDXR (Danbury Muni, CT, US)
Text:KDXR 302253Z 21005KT 10SM CLR 28/13 A3013 RMK AO2 SLP200 T02830128
Temperature: 28.3°C ( 83°F)
Dewpoint: 12.8°C ( 55°F) [RH = 38%]
Pressure (altimeter):30.13 inches Hg (1020.4 mb) [Sea level pressure: 1020.0 mb]
Winds:from the SSW (210 degrees) at 6 MPH (5 knots; 2.6 m/s)
Visibility:10 or more sm (16+ km)
Ceiling:at least 12,000 feet AGL
Clouds:sky clear below 12,000 feet AGL

TAF for:KDXR (Danbury Muni, CT, US)
Text:No data found